Time;durP1;ratioP1;P1;durP2;ratioP2;P2;SDS_P1;SDS_P2;PMS_P1;PMS_P2;Temp;Humidity;BMP_temperature;BMP_pressure;BME280_temperature;BME280_humidity;BME280_pressure;Samples;Min_cycle;Max_cycle;Signal;HPM_P1;HPM_P2
2021/11/08 00:01:25;;;;;;;;;;;24.70;42.10;;;;;;5095543;28;19967;-78
2021/11/08 00:03:53;;;;;;;;;;;24.70;42.20;;;;;;5111435;28;19916;-79
2021/11/08 00:06:19;;;;;;;;;;;24.70;42.10;;;;;;5111261;28;19912;-77
2021/11/08 00:08:47;;;;;;;;;;;24.70;42.20;;;;;;5111466;28;20299;-78
2021/11/08 00:11:15;;;;;;;;;;;24.70;42.20;;;;;;5095305;28;19916;-75
2021/11/08 00:13:41;;;;;;;;;;;24.70;42.20;;;;;;5093613;28;19908;-78
2021/11/08 00:16:15;;;;;;;;;;;24.70;42.20;;;;;;5097401;28;19931;-79
2021/11/08 00:21:29;;;;;;;;;;;24.70;42.20;;;;;;5109009;28;20307;-78
2021/11/08 00:23:57;;;;;;;;;;;24.70;42.30;;;;;;5110913;28;20257;-79
2021/11/08 00:26:23;;;;;;;;;;;24.70;42.30;;;;;;5095374;28;19908;-76
2021/11/08 00:28:49;;;;;;;;;;;24.70;42.30;;;;;;5111338;28;19931;-77
2021/11/08 00:31:17;;;;;;;;;;;24.70;42.30;;;;;;5094896;28;19912;-78
2021/11/08 00:33:45;;;;;;;;;;;24.70;42.30;;;;;;5111044;28;19920;-77
2021/11/08 00:36:10;;;;;;;;;;;24.70;42.30;;;;;;5094815;28;20244;-79
2021/11/08 00:38:38;;;;;;;;;;;24.70;42.30;;;;;;5093850;28;19916;-78
2021/11/08 00:41:06;;;;;;;;;;;24.70;42.30;;;;;;5093713;28;19908;-80
2021/11/08 00:43:32;;;;;;;;;;;24.70;42.30;;;;;;5077373;28;20333;-79
2021/11/08 00:45:58;;;;;;;;;;;24.70;42.40;;;;;;5111085;28;19966;-76
2021/11/08 00:48:28;;;;;;;;;;;24.70;42.40;;;;;;5095119;28;19908;-78
2021/11/08 00:50:54;;;;;;;;;;;24.70;42.40;;;;;;5085128;28;20226;-79
2021/11/08 00:53:20;;;;;;;;;;;24.70;42.40;;;;;;5094039;28;19919;-79
2021/11/08 00:55:46;;;;;;;;;;;24.70;42.40;;;;;;5111142;28;20340;-81
2021/11/08 00:58:45;;;;;;;;;;;24.70;42.40;;;;;;5094892;28;19919;-78
2021/11/08 01:01:05;;;;;;;;;;;24.70;42.50;;;;;;5098290;28;19966;-80
2021/11/08 01:03:31;;;;;;;;;;;24.60;42.50;;;;;;5060723;28;19912;-77
2021/11/08 01:05:59;;;;;;;;;;;24.60;42.50;;;;;;5077125;28;19983;-80
2021/11/08 01:08:25;;;;;;;;;;;24.60;42.50;;;;;;5060525;28;19955;-81
2021/11/08 01:10:53;;;;;;;;;;;24.70;42.50;;;;;;5076870;28;19908;-79
2021/11/08 01:13:18;;;;;;;;;;;24.60;42.50;;;;;;5076992;28;19930;-80
2021/11/08 01:15:44;;;;;;;;;;;24.60;42.50;;;;;;5094818;28;20236;-78
2021/11/08 01:18:10;;;;;;;;;;;24.60;42.50;;;;;;5060709;28;20336;-78
2021/11/08 01:20:44;;;;;;;;;;;24.60;42.50;;;;;;5076983;28;19908;-78
2021/11/08 01:23:12;;;;;;;;;;;24.70;42.60;;;;;;5094630;28;19912;-80
2021/11/08 01:25:40;;;;;;;;;;;24.70;42.60;;;;;;5064041;28;20252;-79
2021/11/08 01:28:07;;;;;;;;;;;24.60;42.50;;;;;;5098483;28;20002;-79
2021/11/08 01:30:35;;;;;;;;;;;24.60;42.60;;;;;;5081057;28;19943;-80
2021/11/08 01:33:03;;;;;;;;;;;24.60;42.60;;;;;;5064206;28;20319;-80
2021/11/08 01:35:34;;;;;;;;;;;24.60;42.60;;;;;;5098846;28;20344;-78
2021/11/08 01:40:32;;;;;;;;;;;24.60;42.60;;;;;;5084369;28;19966;-77
2021/11/08 01:42:57;;;;;;;;;;;24.60;42.60;;;;;;5100745;28;19955;-80
2021/11/08 01:45:25;;;;;;;;;;;24.60;42.60;;;;;;5065334;28;20321;-78
2021/11/08 01:47:53;;;;;;;;;;;24.60;42.60;;;;;;5080824;28;19908;-77
2021/11/08 01:50:21;;;;;;;;;;;24.60;42.70;;;;;;5080901;28;19991;-81
2021/11/08 01:52:49;;;;;;;;;;;24.60;42.70;;;;;;5097847;28;19908;-77
2021/11/08 01:55:15;;;;;;;;;;;24.60;42.70;;;;;;5080233;28;19923;-78
2021/11/08 01:57:43;;;;;;;;;;;24.60;43.30;;;;;;5080471;28;19908;-77
2021/11/08 02:00:09;;;;;;;;;;;24.60;42.70;;;;;;5097650;28;19944;-79
2021/11/08 02:02:34;;;;;;;;;;;24.60;42.70;;;;;;5080391;28;19927;-80
2021/11/08 02:05:02;;;;;;;;;;;24.60;42.70;;;;;;5063047;28;19908;-77
2021/11/08 02:07:28;;;;;;;;;;;24.60;42.70;;;;;;5097668;28;19908;-81
2021/11/08 02:09:53;;;;;;;;;;;24.60;42.80;;;;;;5080435;28;19995;-78
2021/11/08 02:12:19;;;;;;;;;;;24.60;42.80;;;;;;5080016;28;19908;-80
2021/11/08 02:14:44;;;;;;;;;;;24.60;42.80;;;;;;5097528;28;20256;-79
2021/11/08 02:17:10;;;;;;;;;;;24.60;42.80;;;;;;5080420;28;19917;-77
2021/11/08 02:19:36;;;;;;;;;;;24.60;42.80;;;;;;5079501;28;19973;-79
2021/11/08 02:22:03;;;;;;;;;;;24.60;42.80;;;;;;5079554;28;19916;-80
2021/11/08 02:24:30;;;;;;;;;;;24.60;42.80;;;;;;5080100;28;19908;-79
2021/11/08 02:26:58;;;;;;;;;;;24.60;42.90;;;;;;5079429;28;19976;-79
2021/11/08 02:29:29;;;;;;;;;;;24.60;42.90;;;;;;5097200;28;19924;-79
2021/11/08 02:31:57;;;;;;;;;;;24.60;42.90;;;;;;5079368;28;19974;-81
2021/11/08 02:34:23;;;;;;;;;;;24.60;42.90;;;;;;5097321;28;19909;-79
2021/11/08 02:36:48;;;;;;;;;;;24.60;42.90;;;;;;5097210;28;19908;-77
2021/11/08 02:39:20;;;;;;;;;;;24.60;42.90;;;;;;5079436;28;19924;-80
2021/11/08 02:41:49;;;;;;;;;;;24.60;42.90;;;;;;5079426;28;19973;-80
2021/11/08 02:44:21;;;;;;;;;;;24.60;42.90;;;;;;5082613;28;19999;-78
2021/11/08 02:46:52;;;;;;;;;;;24.60;42.90;;;;;;5112591;28;19908;-79
2021/11/08 02:49:25;;;;;;;;;;;24.60;42.90;;;;;;5112765;28;19908;-80
2021/11/08 02:52:00;;;;;;;;;;;24.60;42.90;;;;;;5079018;28;19919;-78
2021/11/08 02:54:33;;;;;;;;;;;24.60;42.90;;;;;;5094565;28;19915;-77
2021/11/08 02:56:59;;;;;;;;;;;24.60;43.00;;;;;;5078942;28;19915;-77
2021/11/08 02:59:27;;;;;;;;;;;24.50;42.90;;;;;;5112806;28;19986;-79
2021/11/08 03:01:55;;;;;;;;;;;24.50;42.90;;;;;;5078790;28;19913;-78
2021/11/08 03:04:30;;;;;;;;;;;24.60;43.00;;;;;;5078910;28;19908;-79
2021/11/08 03:06:55;;;;;;;;;;;24.50;42.90;;;;;;5096660;28;19908;-79
2021/11/08 03:09:23;;;;;;;;;;;24.50;42.90;;;;;;5096814;28;19908;-79
2021/11/08 03:11:48;;;;;;;;;;;24.50;43.00;;;;;;5096474;28;20256;-78
2021/11/08 03:14:18;;;;;;;;;;;24.60;43.00;;;;;;5078809;28;20395;-81
2021/11/08 03:16:49;;;;;;;;;;;24.50;43.00;;;;;;5112058;28;19908;-77
2021/11/08 03:21:41;;;;;;;;;;;24.50;43.00;;;;;;5096329;28;19912;-79
2021/11/08 03:24:13;;;;;;;;;;;24.50;43.00;;;;;;5112369;28;20356;-80
2021/11/08 03:26:47;;;;;;;;;;;24.50;43.00;;;;;;5111294;28;20003;-80
2021/11/08 03:29:16;;;;;;;;;;;24.60;43.00;;;;;;5093928;28;20007;-78
2021/11/08 03:31:42;;;;;;;;;;;24.60;43.10;;;;;;5094912;28;19912;-78
2021/11/08 03:34:10;;;;;;;;;;;24.50;43.10;;;;;;5112118;28;19954;-77
2021/11/08 03:36:36;;;;;;;;;;;24.50;43.00;;;;;;5095923;28;19926;-79
2021/11/08 03:39:02;;;;;;;;;;;24.50;43.10;;;;;;5077805;28;19924;-79
2021/11/08 03:41:29;;;;;;;;;;;24.50;43.00;;;;;;5094718;28;19978;-78
2021/11/08 03:43:58;;;;;;;;;;;24.60;43.10;;;;;;5111654;28;19912;-80
2021/11/08 03:46:25;;;;;;;;;;;24.50;43.10;;;;;;5095477;28;19947;-79
2021/11/08 03:48:53;;;;;;;;;;;24.50;43.10;;;;;;5094977;28;21383;-81
2021/11/08 03:51:18;;;;;;;;;;;24.50;43.10;;;;;;5111834;28;19962;-78
2021/11/08 03:53:44;;;;;;;;;;;24.50;43.10;;;;;;5111891;28;19908;-77
2021/11/08 03:56:09;;;;;;;;;;;24.50;43.10;;;;;;5077871;28;19908;-78
2021/11/08 03:58:36;;;;;;;;;;;24.50;43.10;;;;;;5077589;28;20399;-77
2021/11/08 04:01:02;;;;;;;;;;;24.50;43.10;;;;;;5094298;28;19962;-78
2021/11/08 04:03:27;;;;;;;;;;;24.50;43.20;;;;;;5111677;28;19908;-76
2021/11/08 04:05:53;;;;;;;;;;;24.50;43.20;;;;;;5095543;28;19954;-78
2021/11/08 04:08:21;;;;;;;;;;;24.50;43.20;;;;;;5077809;28;19938;-77
2021/11/08 04:10:50;;;;;;;;;;;24.50;43.10;;;;;;5095622;28;19908;-77
2021/11/08 04:13:15;;;;;;;;;;;24.50;43.20;;;;;;5094185;28;19912;-80
2021/11/08 04:15:42;;;;;;;;;;;24.50;43.10;;;;;;5095266;28;19919;-77
2021/11/08 04:18:13;;;;;;;;;;;24.50;43.10;;;;;;5094764;28;19915;-77
2021/11/08 04:20:42;;;;;;;;;;;24.50;43.10;;;;;;5077542;28;20321;-76
2021/11/08 04:23:08;;;;;;;;;;;24.50;43.10;;;;;;5111152;28;19920;-78
2021/11/08 04:25:39;;;;;;;;;;;24.50;43.10;;;;;;5095126;28;19908;-76
2021/11/08 04:28:04;;;;;;;;;;;24.60;43.20;;;;;;5111138;28;20332;-78
2021/11/08 04:30:31;;;;;;;;;;;24.50;43.10;;;;;;5094113;28;19962;-77
2021/11/08 04:35:40;;;;;;;;;;;24.50;43.10;;;;;;5095492;28;19908;-75
2021/11/08 04:38:16;;;;;;;;;;;24.60;43.10;;;;;;5109517;28;19908;-78
2021/11/08 04:54:32;;;;;;;;;;;23.90;37.10;;;;;;5073282;28;19943;-78
2021/11/08 05:32:23;;;;;;;;;;;24.20;41.00;;;;;;5112590;28;19970;-77
2021/11/08 05:34:51;;;;;;;;;;;24.30;41.10;;;;;;5097728;28;20007;-78
2021/11/08 05:37:16;;;;;;;;;;;24.30;41.10;;;;;;5098413;28;19994;-79
2021/11/08 05:39:56;;;;;;;;;;;24.30;41.20;;;;;;5080684;28;19963;-80
2021/11/08 05:42:24;;;;;;;;;;;24.30;41.30;;;;;;5113096;28;19913;-77
2021/11/08 05:44:53;;;;;;;;;;;24.30;41.20;;;;;;5098279;28;20319;-78
2021/11/08 05:47:19;;;;;;;;;;;24.30;41.20;;;;;;5114329;28;19908;-75
2021/11/08 05:49:47;;;;;;;;;;;24.30;41.30;;;;;;5114073;28;20326;-76
2021/11/08 05:52:13;;;;;;;;;;;24.40;41.30;;;;;;5096578;28;19908;-78
2021/11/08 05:54:41;;;;;;;;;;;24.40;41.30;;;;;;5113994;28;19919;-78
2021/11/08 06:51:24;;;;;;;;;;;24.60;47.00;;;;;;5096384;28;20229;-77
2021/11/08 06:53:58;;;;;;;;;;;24.70;46.90;;;;;;5095553;28;19919;-78
2021/11/08 06:56:28;;;;;;;;;;;24.70;47.40;;;;;;5095583;28;19919;-76
2021/11/08 06:58:56;;;;;;;;;;;24.70;46.70;;;;;;5100161;28;19912;-77
2021/11/08 07:01:22;;;;;;;;;;;24.70;46.50;;;;;;5098727;28;19927;-81
2021/11/08 07:03:47;;;;;;;;;;;24.70;46.40;;;;;;5081916;28;19907;-79
2021/11/08 07:06:18;;;;;;;;;;;24.70;46.30;;;;;;5098929;28;19907;-78
2021/11/08 07:08:43;;;;;;;;;;;24.70;46.20;;;;;;5098740;28;19915;-77
2021/11/08 07:11:09;;;;;;;;;;;24.70;46.20;;;;;;5116541;28;19908;-78
2021/11/08 07:13:34;;;;;;;;;;;24.70;46.10;;;;;;5116957;28;19912;-75
2021/11/08 07:16:00;;;;;;;;;;;24.80;46.00;;;;;;5081714;28;19922;-79
2021/11/08 07:18:25;;;;;;;;;;;24.70;45.90;;;;;;5098624;28;20314;-78
2021/11/08 07:20:53;;;;;;;;;;;24.80;45.90;;;;;;5098327;28;19955;-77
2021/11/08 07:23:19;;;;;;;;;;;24.80;45.80;;;;;;5097596;28;19965;-77
2021/11/08 07:25:45;;;;;;;;;;;24.80;45.70;;;;;;5081401;28;19916;-77
2021/11/08 07:28:12;;;;;;;;;;;24.80;45.70;;;;;;5098223;28;19908;-79
2021/11/08 07:30:38;;;;;;;;;;;24.80;45.60;;;;;;5082130;28;20018;-77
2021/11/08 07:33:07;;;;;;;;;;;24.80;45.50;;;;;;5116568;28;19936;-78
2021/11/08 07:35:32;;;;;;;;;;;24.80;45.50;;;;;;5098123;28;19907;-77
2021/11/08 07:37:58;;;;;;;;;;;24.80;45.40;;;;;;5081298;28;19961;-78
2021/11/08 07:40:23;;;;;;;;;;;24.80;45.30;;;;;;5116501;28;19924;-76
2021/11/08 07:42:54;;;;;;;;;;;24.80;45.30;;;;;;5116294;28;19916;-77
2021/11/08 07:45:20;;;;;;;;;;;24.80;45.20;;;;;;5098641;28;19974;-78
2021/11/08 07:47:46;;;;;;;;;;;24.80;45.10;;;;;;5081436;28;20051;-76
2021/11/08 07:50:11;;;;;;;;;;;24.80;45.10;;;;;;5081909;28;19907;-79
2021/11/08 07:52:39;;;;;;;;;;;24.90;45.00;;;;;;5098335;28;19908;-80
2021/11/08 07:55:05;;;;;;;;;;;24.90;44.90;;;;;;5098617;28;19908;-76
2021/11/08 07:57:30;;;;;;;;;;;24.90;44.90;;;;;;5098348;28;20007;-77
2021/11/08 07:59:56;;;;;;;;;;;24.90;44.80;;;;;;5115698;28;19918;-78
2021/11/08 08:02:22;;;;;;;;;;;24.90;44.70;;;;;;5097797;28;20326;-78
2021/11/08 08:04:50;;;;;;;;;;;24.90;44.70;;;;;;5115875;28;19918;-77
2021/11/08 08:07:18;;;;;;;;;;;24.90;45.30;;;;;;5097545;28;19912;-78
2021/11/08 08:09:43;;;;;;;;;;;24.90;44.60;;;;;;5097952;28;19912;-77
2021/11/08 08:12:09;;;;;;;;;;;24.90;44.60;;;;;;5097902;28;19911;-75
2021/11/08 08:14:34;;;;;;;;;;;24.90;44.60;;;;;;5115847;28;20366;-79
2021/11/08 08:17:01;;;;;;;;;;;24.90;44.50;;;;;;5115492;28;19907;-76
2021/11/08 08:19:26;;;;;;;;;;;24.90;44.50;;;;;;5097652;28;19943;-79
2021/11/08 08:21:52;;;;;;;;;;;25.00;44.50;;;;;;5097381;28;19974;-77
2021/11/08 08:24:17;;;;;;;;;;;25.00;44.50;;;;;;5115342;28;19961;-77
2021/11/08 08:26:43;;;;;;;;;;;25.00;44.40;;;;;;5080599;28;19915;-79
2021/11/08 08:29:09;;;;;;;;;;;25.00;44.40;;;;;;5080698;28;19907;-76
2021/11/08 08:31:42;;;;;;;;;;;25.00;44.40;;;;;;5080583;28;19965;-76
2021/11/08 08:34:07;;;;;;;;;;;25.00;44.40;;;;;;5097469;28;19919;-81
2021/11/08 08:36:33;;;;;;;;;;;25.00;44.30;;;;;;5097321;28;19907;-77
2021/11/08 08:39:01;;;;;;;;;;;25.00;44.30;;;;;;5097070;28;19923;-76
2021/11/08 08:41:26;;;;;;;;;;;24.90;44.20;;;;;;5090691;28;19908;-78
2021/11/08 08:43:54;;;;;;;;;;;25.00;44.40;;;;;;5077056;28;19920;-78
2021/11/08 08:46:20;;;;;;;;;;;25.00;44.50;;;;;;5094077;28;19970;-78
2021/11/08 08:48:49;;;;;;;;;;;25.00;44.70;;;;;;5094085;28;19915;-78
2021/11/08 08:51:17;;;;;;;;;;;25.00;44.90;;;;;;5060608;28;20339;-77
2021/11/08 08:53:43;;;;;;;;;;;25.00;45.10;;;;;;5094822;28;20248;-75
2021/11/08 08:56:09;;;;;;;;;;;25.00;45.80;;;;;;5077164;28;20329;-79
2021/11/08 08:58:37;;;;;;;;;;;25.10;45.40;;;;;;5094455;28;19999;-75
2021/11/08 09:01:02;;;;;;;;;;;25.10;45.50;;;;;;5097646;28;20344;-79
2021/11/08 09:03:28;;;;;;;;;;;25.10;45.40;;;;;;5077900;28;19913;-78
2021/11/08 09:05:53;;;;;;;;;;;25.10;45.30;;;;;;5097117;28;19985;-78
2021/11/08 09:08:19;;;;;;;;;;;25.10;45.20;;;;;;5062097;28;19908;-80
2021/11/08 09:10:45;;;;;;;;;;;25.20;45.30;;;;;;5076875;28;19912;-79
2021/11/08 09:13:10;;;;;;;;;;;25.20;45.20;;;;;;5076709;28;19908;-77
2021/11/08 09:15:36;;;;;;;;;;;25.20;45.30;;;;;;5093779;28;19908;-78
2021/11/08 09:18:03;;;;;;;;;;;25.20;45.40;;;;;;5065398;28;19979;-78
2021/11/08 09:20:31;;;;;;;;;;;25.20;45.30;;;;;;5071675;28;19928;-77
2021/11/08 09:22:57;;;;;;;;;;;25.30;45.40;;;;;;5093288;28;19923;-77
2021/11/08 09:25:23;;;;;;;;;;;25.30;45.20;;;;;;5059886;28;19908;-79
2021/11/08 09:27:54;;;;;;;;;;;25.30;45.20;;;;;;5059852;28;19919;-78
2021/11/08 09:30:21;;;;;;;;;;;25.30;45.20;;;;;;5060253;28;19908;-81
2021/11/08 09:32:46;;;;;;;;;;;25.30;45.10;;;;;;5076633;28;19909;-83
2021/11/08 09:35:14;;;;;;;;;;;25.40;45.00;;;;;;5094397;28;19916;-79
2021/11/08 09:37:44;;;;;;;;;;;25.40;45.00;;;;;;5076756;28;20321;-80
2021/11/08 09:40:14;;;;;;;;;;;25.40;45.10;;;;;;5094191;28;20272;-79
2021/11/08 09:42:40;;;;;;;;;;;25.40;45.10;;;;;;5076624;28;19923;-81
2021/11/08 09:45:06;;;;;;;;;;;25.40;45.10;;;;;;5077408;28;19916;-78
2021/11/08 09:47:32;;;;;;;;;;;25.40;45.00;;;;;;5080370;28;19908;-80
2021/11/08 09:50:03;;;;;;;;;;;25.40;45.00;;;;;;5080984;28;19912;-80
2021/11/08 09:52:33;;;;;;;;;;;25.40;44.90;;;;;;5080189;28;19912;-80
2021/11/08 09:54:59;;;;;;;;;;;25.40;45.00;;;;;;5080381;28;19951;-76
2021/11/08 09:57:24;;;;;;;;;;;25.40;44.90;;;;;;5097816;28;19919;-77
2021/11/08 09:59:52;;;;;;;;;;;25.40;44.90;;;;;;5063337;28;20318;-78
2021/11/08 10:02:18;;;;;;;;;;;25.40;44.90;;;;;;5063605;28;19912;-79
2021/11/08 10:04:44;;;;;;;;;;;25.40;44.80;;;;;;5079746;28;19919;-76
2021/11/08 10:07:12;;;;;;;;;;;25.40;44.80;;;;;;5079863;28;20344;-79
2021/11/08 10:09:38;;;;;;;;;;;25.40;44.80;;;;;;5079641;28;19943;-78
2021/11/08 10:12:10;;;;;;;;;;;25.40;44.60;;;;;;5063250;28;19908;-79
2021/11/08 10:14:37;;;;;;;;;;;25.40;44.70;;;;;;5079462;28;19913;-80
2021/11/08 10:17:05;;;;;;;;;;;25.50;44.70;;;;;;5062861;28;20348;-79
2021/11/08 10:19:34;;;;;;;;;;;25.50;44.70;;;;;;5063328;28;19909;-78
2021/11/08 10:22:01;;;;;;;;;;;25.50;44.60;;;;;;5083618;28;19912;-79
2021/11/08 10:24:30;;;;;;;;;;;25.50;44.50;;;;;;5063128;28;19920;-79
2021/11/08 10:26:59;;;;;;;;;;;25.50;44.50;;;;;;5062667;28;19923;-78
2021/11/08 10:29:27;;;;;;;;;;;25.60;45.00;;;;;;5079622;28;20060;-79
2021/11/08 10:31:53;;;;;;;;;;;25.50;44.20;;;;;;5063331;28;19912;-77
2021/11/08 10:34:21;;;;;;;;;;;25.50;44.30;;;;;;5097061;28;19916;-79
2021/11/08 10:36:56;;;;;;;;;;;25.50;44.30;;;;;;5062427;28;19916;-77
2021/11/08 10:39:22;;;;;;;;;;;25.50;44.30;;;;;;5073127;28;20380;-77
2021/11/08 10:41:47;;;;;;;;;;;25.50;44.30;;;;;;5082200;28;19912;-80
2021/11/08 10:44:17;;;;;;;;;;;25.50;44.40;;;;;;5099414;28;19908;-79
2021/11/08 10:46:44;;;;;;;;;;;25.50;44.40;;;;;;5082413;28;19915;-79
2021/11/08 10:49:12;;;;;;;;;;;25.50;44.40;;;;;;5082403;28;20076;-78
2021/11/08 10:51:38;;;;;;;;;;;25.50;44.40;;;;;;5117441;28;19919;-78
2021/11/08 10:54:14;;;;;;;;;;;25.60;44.40;;;;;;5099444;28;20264;-80
2021/11/08 10:56:41;;;;;;;;;;;25.50;44.30;;;;;;5081017;28;19919;-78
2021/11/08 10:59:14;;;;;;;;;;;25.50;44.40;;;;;;5081916;28;19908;-78
2021/11/08 11:01:44;;;;;;;;;;;25.50;44.40;;;;;;5081890;28;19912;-80
2021/11/08 11:04:09;;;;;;;;;;;25.50;44.40;;;;;;5099210;28;19931;-78
2021/11/08 11:06:35;;;;;;;;;;;25.50;44.40;;;;;;5098863;28;20235;-79
2021/11/08 11:09:02;;;;;;;;;;;25.50;44.30;;;;;;5099200;28;19960;-75
2021/11/08 11:11:28;;;;;;;;;;;25.50;44.30;;;;;;5098809;28;19908;-78
2021/11/08 11:13:54;;;;;;;;;;;25.50;44.10;;;;;;5081930;28;20383;-79
2021/11/08 11:16:34;;;;;;;;;;;25.50;44.20;;;;;;5081847;28;19962;-78
2021/11/08 11:19:01;;;;;;;;;;;25.60;44.30;;;;;;5099180;28;19908;-80
2021/11/08 11:21:26;;;;;;;;;;;25.60;44.30;;;;;;5098889;28;19961;-81
2021/11/08 11:24:00;;;;;;;;;;;25.50;44.20;;;;;;5081716;28;19908;-79
2021/11/08 11:26:29;;;;;;;;;;;25.50;44.20;;;;;;5083143;28;19919;-80
2021/11/08 11:28:54;;;;;;;;;;;25.60;44.20;;;;;;5099317;28;20313;-81
2021/11/08 11:31:21;;;;;;;;;;;25.60;44.00;;;;;;5098599;28;19995;-80
2021/11/08 11:33:49;;;;;;;;;;;25.60;44.10;;;;;;5098728;28;19916;-81
2021/11/08 11:36:16;;;;;;;;;;;25.60;44.00;;;;;;5098764;28;20316;-81
2021/11/08 11:38:44;;;;;;;;;;;25.60;43.90;;;;;;5098562;28;19919;-80
2021/11/08 11:41:12;;;;;;;;;;;25.60;43.80;;;;;;5099059;28;19993;-84
2021/11/08 11:43:42;;;;;;;;;;;25.60;43.80;;;;;;5097818;28;19968;-78
2021/11/08 11:46:11;;;;;;;;;;;25.60;43.80;;;;;;5116342;28;19915;-80
2021/11/08 11:48:37;;;;;;;;;;;25.60;43.70;;;;;;5098182;28;19916;-81
2021/11/08 11:51:03;;;;;;;;;;;25.60;43.70;;;;;;5098920;28;19918;-83
2021/11/08 11:53:29;;;;;;;;;;;25.60;43.70;;;;;;5082009;28;20316;-81
2021/11/08 11:55:55;;;;;;;;;;;25.70;43.70;;;;;;5073186;28;19966;-85
2021/11/08 11:58:23;;;;;;;;;;;25.70;43.70;;;;;;5081315;28;20002;-81
2021/11/08 12:00:52;;;;;;;;;;;25.70;43.70;;;;;;5081148;28;20321;-81
2021/11/08 12:03:20;;;;;;;;;;;25.70;43.70;;;;;;5081173;28;19920;-82
2021/11/08 12:05:54;;;;;;;;;;;25.70;43.60;;;;;;5081121;28;19915;-81
2021/11/08 12:08:19;;;;;;;;;;;25.70;43.70;;;;;;5098316;28;19907;-81
2021/11/08 12:10:50;;;;;;;;;;;25.70;43.60;;;;;;5097590;28;19981;-80
2021/11/08 12:13:19;;;;;;;;;;;25.70;43.70;;;;;;5080983;28;19919;-83
2021/11/08 12:15:49;;;;;;;;;;;25.70;43.60;;;;;;5098194;28;19907;-83
2021/11/08 12:18:16;;;;;;;;;;;25.70;43.50;;;;;;5081028;28;19958;-81
2021/11/08 12:20:48;;;;;;;;;;;25.70;43.50;;;;;;5097891;28;20256;-79
2021/11/08 12:23:17;;;;;;;;;;;25.70;43.40;;;;;;5080866;28;19959;-78
2021/11/08 12:25:43;;;;;;;;;;;25.70;43.60;;;;;;5081199;28;19946;-77
2021/11/08 12:28:14;;;;;;;;;;;25.70;43.40;;;;;;5097440;28;19908;-79
2021/11/08 12:30:44;;;;;;;;;;;25.70;43.40;;;;;;5098059;28;19930;-79
2021/11/08 12:33:29;;;;;;;;;;;25.70;43.60;;;;;;5097338;28;19908;-78
2021/11/08 12:36:01;;;;;;;;;;;25.70;43.50;;;;;;5097617;28;19908;-80
2021/11/08 12:38:28;;;;;;;;;;;25.70;43.40;;;;;;5097697;28;19945;-79
2021/11/08 12:41:05;;;;;;;;;;;25.70;43.50;;;;;;5080720;28;19908;-78
2021/11/08 12:43:32;;;;;;;;;;;25.70;43.50;;;;;;5097470;28;19912;-83
2021/11/08 12:46:11;;;;;;;;;;;25.70;43.40;;;;;;5115213;28;19908;-77
2021/11/08 12:48:39;;;;;;;;;;;25.70;43.60;;;;;;5080749;28;19915;-81
2021/11/08 12:51:05;;;;;;;;;;;25.70;43.50;;;;;;5115466;28;20264;-78
2021/11/08 12:53:34;;;;;;;;;;;25.70;43.40;;;;;;5097780;28;19907;-78
2021/11/08 12:56:07;;;;;;;;;;;25.70;43.30;;;;;;5080466;28;19912;-78
2021/11/08 12:58:34;;;;;;;;;;;25.70;43.20;;;;;;5098152;28;19907;-82
2021/11/08 13:01:01;;;;;;;;;;;25.70;43.30;;;;;;5097996;28;19907;-80
2021/11/08 13:03:35;;;;;;;;;;;25.70;43.30;;;;;;5098825;28;20004;-79
2021/11/08 13:06:04;;;;;;;;;;;25.70;43.20;;;;;;5080935;28;19943;-83
2021/11/08 13:08:33;;;;;;;;;;;25.70;43.20;;;;;;5097943;28;19984;-77
2021/11/08 13:11:05;;;;;;;;;;;25.70;43.10;;;;;;5115135;28;19914;-81
2021/11/08 13:13:33;;;;;;;;;;;25.70;43.20;;;;;;5096911;28;20294;-82
2021/11/08 13:16:04;;;;;;;;;;;25.70;43.10;;;;;;5097068;28;19908;-80
2021/11/08 13:18:41;;;;;;;;;;;25.70;43.30;;;;;;5080474;28;20366;-78
2021/11/08 13:21:06;;;;;;;;;;;25.70;43.20;;;;;;5100317;28;20363;-79
2021/11/08 13:23:34;;;;;;;;;;;25.70;43.10;;;;;;5119296;28;19955;-79
2021/11/08 13:26:00;;;;;;;;;;;25.70;43.10;;;;;;5101377;28;20317;-82
2021/11/08 13:28:31;;;;;;;;;;;25.70;43.00;;;;;;5101107;28;19998;-79
2021/11/08 13:30:58;;;;;;;;;;;25.70;43.00;;;;;;5118826;28;19912;-78
2021/11/08 13:33:30;;;;;;;;;;;25.70;43.10;;;;;;5100580;28;19908;-76
2021/11/08 13:36:01;;;;;;;;;;;25.70;43.10;;;;;;5092353;28;20000;-81
2021/11/08 13:38:27;;;;;;;;;;;25.80;43.10;;;;;;5100712;28;19965;-77
2021/11/08 13:41:00;;;;;;;;;;;25.70;43.00;;;;;;5083887;28;20244;-76
2021/11/08 13:43:27;;;;;;;;;;;25.70;43.10;;;;;;5100902;28;19968;-81
2021/11/08 13:45:57;;;;;;;;;;;25.70;43.00;;;;;;5118180;28;20065;-77
2021/11/08 13:48:25;;;;;;;;;;;25.70;43.10;;;;;;5118723;28;19934;-79
2021/11/08 13:50:53;;;;;;;;;;;25.70;42.90;;;;;;5100386;28;19908;-78
2021/11/08 13:53:25;;;;;;;;;;;25.50;37.80;;;;;;5100477;28;19912;-79
2021/11/08 13:55:55;;;;;;;;;;;24.80;35.10;;;;;;5083615;28;19908;-78
2021/11/08 13:58:21;;;;;;;;;;;24.40;35.00;;;;;;5083643;28;19915;-79
2021/11/08 14:00:46;;;;;;;;;;;24.30;34.40;;;;;;5100511;28;19908;-78
2021/11/08 14:03:15;;;;;;;;;;;24.10;34.40;;;;;;5083146;28;19911;-79
2021/11/08 14:05:49;;;;;;;;;;;24.00;34.30;;;;;;5083191;28;19950;-81
2021/11/08 14:08:25;;;;;;;;;;;23.80;34.40;;;;;;5100292;28;19961;-79
2021/11/08 14:10:54;;;;;;;;;;;23.80;34.40;;;;;;5099885;28;19919;-80
2021/11/08 14:13:22;;;;;;;;;;;23.70;34.80;;;;;;5083081;28;19936;-82
2021/11/08 14:15:56;;;;;;;;;;;23.70;34.70;;;;;;5083282;28;19907;-76
2021/11/08 14:18:23;;;;;;;;;;;23.70;34.70;;;;;;5099822;28;19907;-78
2021/11/08 14:20:49;;;;;;;;;;;23.80;34.80;;;;;;5100182;28;19918;-76
2021/11/08 14:23:17;;;;;;;;;;;23.80;34.50;;;;;;5099570;28;20334;-76
2021/11/08 14:25:47;;;;;;;;;;;23.80;34.50;;;;;;5117529;28;19908;-76
2021/11/08 14:28:12;;;;;;;;;;;23.80;34.30;;;;;;5099881;28;20347;-77
2021/11/08 14:30:38;;;;;;;;;;;23.80;34.10;;;;;;5099255;28;19912;-77
2021/11/08 14:33:08;;;;;;;;;;;23.80;34.10;;;;;;5117490;28;19991;-75
2021/11/08 14:35:36;;;;;;;;;;;23.90;34.30;;;;;;5082825;28;19919;-77
2021/11/08 14:38:13;;;;;;;;;;;23.80;34.00;;;;;;5082493;28;19994;-78
2021/11/08 14:40:43;;;;;;;;;;;23.80;34.70;;;;;;5099101;28;20405;-80
2021/11/08 14:43:18;;;;;;;;;;;24.00;36.00;;;;;;5099617;28;19911;-76
2021/11/08 14:45:53;;;;;;;;;;;24.30;36.30;;;;;;5099074;28;19908;-76
2021/11/08 14:48:21;;;;;;;;;;;24.40;36.20;;;;;;5099127;28;20286;-78
2021/11/08 14:50:47;;;;;;;;;;;24.60;36.00;;;;;;5099328;28;20321;-78
2021/11/08 14:53:12;;;;;;;;;;;24.70;36.00;;;;;;5082108;28;19919;-78
2021/11/08 14:55:40;;;;;;;;;;;24.80;36.40;;;;;;5098797;28;19908;-79
2021/11/08 14:58:13;;;;;;;;;;;24.80;36.50;;;;;;5098976;28;19918;-76
2021/11/08 15:00:41;;;;;;;;;;;24.90;36.40;;;;;;5117107;28;19908;-78
2021/11/08 15:03:16;;;;;;;;;;;25.00;36.80;;;;;;5117091;28;19912;-78
2021/11/08 15:05:44;;;;;;;;;;;25.00;36.50;;;;;;5099388;28;20336;-81
2021/11/08 15:08:14;;;;;;;;;;;25.10;36.50;;;;;;5099134;28;19908;-76
2021/11/08 15:10:40;;;;;;;;;;;25.10;36.60;;;;;;5098725;28;20375;-76
2021/11/08 15:13:09;;;;;;;;;;;25.20;36.50;;;;;;5098821;28;19911;-78
2021/11/08 15:15:39;;;;;;;;;;;25.20;36.80;;;;;;5098456;28;19908;-79
2021/11/08 15:18:06;;;;;;;;;;;25.20;37.20;;;;;;5081554;28;20336;-76
2021/11/08 15:20:39;;;;;;;;;;;25.20;36.90;;;;;;5116296;28;19908;-80
2021/11/08 15:23:07;;;;;;;;;;;25.30;37.00;;;;;;5099091;28;20221;-79
2021/11/08 15:25:34;;;;;;;;;;;25.30;37.50;;;;;;5081681;28;19914;-75
2021/11/08 15:28:03;;;;;;;;;;;25.30;37.30;;;;;;5098304;28;19912;-77
2021/11/08 15:30:29;;;;;;;;;;;25.30;37.60;;;;;;5116322;28;20002;-81
2021/11/08 15:33:08;;;;;;;;;;;25.30;37.70;;;;;;5098303;28;20021;-78
2021/11/08 15:35:40;;;;;;;;;;;25.30;37.50;;;;;;5116188;28;19908;-78
2021/11/08 15:38:10;;;;;;;;;;;25.30;37.60;;;;;;5098857;28;19935;-79
2021/11/08 15:40:38;;;;;;;;;;;25.30;37.90;;;;;;5098909;28;19923;-76
2021/11/08 15:43:08;;;;;;;;;;;25.40;38.10;;;;;;5081461;28;19912;-78
2021/11/08 15:45:38;;;;;;;;;;;25.30;38.30;;;;;;5098675;28;19915;-78
2021/11/08 15:48:04;;;;;;;;;;;25.30;38.60;;;;;;5081510;28;19946;-78
2021/11/08 15:50:32;;;;;;;;;;;25.40;39.50;;;;;;5081138;28;19915;-80
2021/11/08 15:52:57;;;;;;;;;;;25.40;39.60;;;;;;5098014;28;19912;-78
2021/11/08 15:55:28;;;;;;;;;;;25.50;39.90;;;;;;5097958;28;19954;-78
2021/11/08 15:57:54;;;;;;;;;;;25.50;40.20;;;;;;5097824;28;19908;-79
2021/11/08 16:00:22;;;;;;;;;;;25.40;40.20;;;;;;5097871;28;20006;-78
2021/11/08 16:02:48;;;;;;;;;;;25.50;40.30;;;;;;5097818;28;19916;-78
2021/11/08 16:05:18;;;;;;;;;;;25.50;40.10;;;;;;5097861;28;20379;-78
2021/11/08 16:07:45;;;;;;;;;;;25.50;40.20;;;;;;5098302;28;20220;-78
2021/11/08 16:10:13;;;;;;;;;;;25.50;40.40;;;;;;5097476;28;20344;-77
2021/11/08 16:12:38;;;;;;;;;;;25.50;40.30;;;;;;5097488;28;19943;-77
2021/11/08 16:15:04;;;;;;;;;;;25.50;40.30;;;;;;5115592;28;20312;-76